createdAt,value
2022-12-26T00:00:22.812Z,7.13
2022-12-26T00:03:10.256Z,4.23
2022-12-26T00:05:58.940Z,6.13
2022-12-26T00:08:46.220Z,5.67
2022-12-26T00:11:33.610Z,9.23
2022-12-26T00:14:20.773Z,5.10
2022-12-26T00:17:07.561Z,3.80
2022-12-26T00:19:55.016Z,5.43
2022-12-26T00:22:43.328Z,6.53
2022-12-26T00:25:30.184Z,4.37
2022-12-26T00:28:16.947Z,4.73
2022-12-26T00:31:05.978Z,5.57
2022-12-26T00:33:53.111Z,8.93
2022-12-26T00:36:41.746Z,4.57
2022-12-26T00:39:30.306Z,5.90
2022-12-26T00:42:17.339Z,4.97
2022-12-26T00:45:04.653Z,4.10
2022-12-26T00:47:51.779Z,3.60
2022-12-26T00:50:39.247Z,3.90
2022-12-26T00:53:26.338Z,4.37
2022-12-26T00:56:15.791Z,5.10
2022-12-26T00:59:03.879Z,4.80
2022-12-26T01:01:51.392Z,4.83
2022-12-26T01:04:38.675Z,3.27
2022-12-26T01:07:25.883Z,6.10
2022-12-26T01:10:14.921Z,2.20
2022-12-26T01:13:03.212Z,2.47
2022-12-26T01:15:51.147Z,4.70
2022-12-26T01:18:38.232Z,3.00
2022-12-26T01:21:25.664Z,3.90
2022-12-26T01:24:14.004Z,2.73
2022-12-26T01:27:01.106Z,6.47
2022-12-26T01:29:50.111Z,3.53
2022-12-26T01:32:37.444Z,2.83
2022-12-26T01:35:24.682Z,2.30
2022-12-26T01:38:12.008Z,3.00
2022-12-26T01:41:22.332Z,3.17
2022-12-26T01:44:48.356Z,4.63
2022-12-26T01:47:44.756Z,3.50
2022-12-26T01:50:40.122Z,3.70
2022-12-26T01:53:32.676Z,2.73
2022-12-26T01:56:22.982Z,3.33
2022-12-26T01:59:14.840Z,3.73
2022-12-26T02:02:02.517Z,3.40
2022-12-26T02:05:10.404Z,2.97
2022-12-26T02:07:58.950Z,2.80
2022-12-26T02:10:51.414Z,3.30
2022-12-26T02:13:39.440Z,3.77
2022-12-26T02:16:26.865Z,2.60
2022-12-26T02:19:30.286Z,4.83
2022-12-26T02:22:47.585Z,2.27
2022-12-26T02:26:12.492Z,4.37
2022-12-26T02:29:31.129Z,5.50
2022-12-26T02:32:28.427Z,4.07
2022-12-26T02:35:23.798Z,5.67
2022-12-26T02:38:27.636Z,4.47
2022-12-26T02:41:27.584Z,5.33
2022-12-26T02:44:39.863Z,3.37
2022-12-26T02:47:37.458Z,4.00
2022-12-26T02:50:52.932Z,5.47
2022-12-26T02:54:07.420Z,3.43
2022-12-26T02:57:18.368Z,2.83
2022-12-26T03:00:27.039Z,3.17
2022-12-26T03:03:37.628Z,5.57
2022-12-26T03:06:59.984Z,4.30
2022-12-26T03:10:07.134Z,5.10
2022-12-26T03:13:14.356Z,3.37
2022-12-26T03:16:22.574Z,4.17
2022-12-26T03:19:13.862Z,2.33
2022-12-26T03:22:02.352Z,2.77
2022-12-26T03:25:08.143Z,3.83
2022-12-26T03:27:55.701Z,6.10
2022-12-26T03:30:50.321Z,5.33
2022-12-26T03:33:56.888Z,2.43
2022-12-26T03:37:11.120Z,3.43
2022-12-26T03:40:25.967Z,3.03
2022-12-26T03:43:38.706Z,4.30
2022-12-26T03:46:52.070Z,4.03
2022-12-26T03:50:03.861Z,7.60
2022-12-26T03:53:21.200Z,5.13
2022-12-26T03:56:32.728Z,3.77
2022-12-26T03:59:42.479Z,4.43
2022-12-26T04:02:49.285Z,8.97
2022-12-26T04:05:56.468Z,3.70
2022-12-26T04:09:08.744Z,4.77
2022-12-26T04:12:29.791Z,3.90
2022-12-26T04:15:40.556Z,4.77
2022-12-26T04:18:55.428Z,3.87
2022-12-26T04:22:05.672Z,2.60
2022-12-26T04:25:16.558Z,5.47
2022-12-26T04:28:21.272Z,4.43
2022-12-26T04:31:30.228Z,2.53
2022-12-26T04:34:39.922Z,4.27
2022-12-26T04:37:47.309Z,3.97
2022-12-26T04:40:59.486Z,3.27
2022-12-26T04:44:05.257Z,4.53
2022-12-26T04:46:54.464Z,3.30
2022-12-26T04:50:02.426Z,2.53
2022-12-26T04:53:01.299Z,3.70
2022-12-26T04:55:50.241Z,2.50
2022-12-26T04:58:37.775Z,6.97
2022-12-26T05:01:42.199Z,3.70
2022-12-26T05:04:47.450Z,4.27
2022-12-26T05:07:54.062Z,3.07
2022-12-26T05:10:41.684Z,4.23
2022-12-26T05:13:30.277Z,4.30
2022-12-26T05:16:35.048Z,2.07
2022-12-26T05:19:39.290Z,4.17
2022-12-26T05:22:46.003Z,2.77
2022-12-26T05:25:56.237Z,3.00
2022-12-26T05:28:44.452Z,3.90
2022-12-26T05:31:35.890Z,2.27
2022-12-26T05:34:22.656Z,4.17
2022-12-26T05:37:09.984Z,4.27
2022-12-26T05:39:57.032Z,3.60
2022-12-26T05:42:44.301Z,6.33
2022-12-26T05:45:32.900Z,3.07
2022-12-26T05:48:20.064Z,3.00
2022-12-26T05:51:07.451Z,5.60
2022-12-26T05:53:54.337Z,5.07
2022-12-26T05:56:47.460Z,5.83
2022-12-26T05:59:36.154Z,5.47
2022-12-26T06:02:24.824Z,3.27
2022-12-26T06:05:11.913Z,2.30
2022-12-26T06:07:59.046Z,4.47
2022-12-26T06:10:46.187Z,4.90
2022-12-26T06:13:33.982Z,3.00
2022-12-26T06:16:22.280Z,3.50
2022-12-26T06:19:10.917Z,3.27
2022-12-26T06:21:58.002Z,3.20
2022-12-26T06:24:45.517Z,5.40
2022-12-26T06:27:32.991Z,2.20
2022-12-26T06:30:19.839Z,4.13
2022-12-26T06:33:07.376Z,3.70
2022-12-26T06:35:55.743Z,5.03
2022-12-26T06:38:43.228Z,4.63
2022-12-26T06:41:30.736Z,4.93
2022-12-26T06:44:18.739Z,6.10
2022-12-26T06:47:05.990Z,3.00
2022-12-26T06:49:53.133Z,2.70
2022-12-26T06:52:41.222Z,3.63
2022-12-26T06:55:28.976Z,3.90
2022-12-26T06:58:17.609Z,6.93
2022-12-26T07:01:08.866Z,4.17
2022-12-26T07:03:56.809Z,4.60
2022-12-26T07:06:43.786Z,3.57
2022-12-26T07:09:34.170Z,3.90
2022-12-26T07:12:22.090Z,3.53
2022-12-26T07:15:10.341Z,3.83
2022-12-26T07:17:58.002Z,5.37
2022-12-26T07:20:45.148Z,2.80
2022-12-26T07:23:32.487Z,3.17
2022-12-26T07:26:21.294Z,4.73
2022-12-26T07:29:09.039Z,3.93
2022-12-26T07:31:57.738Z,3.97
2022-12-26T07:34:45.393Z,3.80
2022-12-26T07:37:32.621Z,4.83
2022-12-26T07:40:20.338Z,4.60
2022-12-26T07:43:09.204Z,5.20
2022-12-26T07:45:59.718Z,5.27
2022-12-26T07:48:46.967Z,2.60
2022-12-26T07:51:34.965Z,3.70
2022-12-26T07:54:41.387Z,6.63
2022-12-26T07:57:47.932Z,3.23
2022-12-26T08:00:39.674Z,3.33
2022-12-26T08:03:26.990Z,5.80
2022-12-26T08:06:14.368Z,5.13
2022-12-26T08:09:02.129Z,4.33
2022-12-26T08:11:49.516Z,8.37
2022-12-26T08:14:37.724Z,1.73
2022-12-26T08:17:26.255Z,3.47
2022-12-26T08:20:13.391Z,1.70
2022-12-26T08:23:00.977Z,3.80
2022-12-26T08:25:48.016Z,2.33
2022-12-26T08:28:35.684Z,3.00
2022-12-26T08:34:13.563Z,2.73
2022-12-26T08:37:00.502Z,4.00
2022-12-26T08:39:47.888Z,3.13
2022-12-26T08:42:44.568Z,5.83
2022-12-26T08:45:42.316Z,4.57
2022-12-26T08:48:29.287Z,4.57
2022-12-26T08:51:20.312Z,2.43
2022-12-26T08:54:07.514Z,5.60
2022-12-26T08:56:54.557Z,2.87
2022-12-26T08:59:41.914Z,3.53
2022-12-26T09:02:29.290Z,4.83
2022-12-26T09:05:16.438Z,2.97
2022-12-26T09:08:04.956Z,6.33
2022-12-26T09:10:52.132Z,5.47
2022-12-26T09:13:41.768Z,3.80
2022-12-26T09:16:35.571Z,4.90
2022-12-26T09:19:29.865Z,3.70
2022-12-26T09:22:35.457Z,5.93
2022-12-26T09:25:25.903Z,4.17
2022-12-26T09:28:12.714Z,3.63
2022-12-26T09:31:01.930Z,3.23
2022-12-26T09:33:49.603Z,2.47
2022-12-26T09:36:39.161Z,4.30
2022-12-26T09:39:26.029Z,2.17
2022-12-26T09:42:25.181Z,3.10
2022-12-26T09:45:17.081Z,2.77
2022-12-26T09:48:11.958Z,1.03
2022-12-26T09:50:59.503Z,2.10
2022-12-26T09:53:48.792Z,3.03
2022-12-26T09:59:54.246Z,1.97
2022-12-26T10:02:41.492Z,1.50
2022-12-26T10:05:35.470Z,0.83
2022-12-26T10:08:28.750Z,2.80
2022-12-26T10:11:23.815Z,0.80
2022-12-26T10:14:23.227Z,0.90
2022-12-26T10:17:19.926Z,0.93
2022-12-26T10:20:23.916Z,0.60
2022-12-26T10:23:27.670Z,1.47
2022-12-26T10:26:20.603Z,3.07
2022-12-26T10:29:16.607Z,1.10
2022-12-26T10:32:08.301Z,1.80
2022-12-26T10:34:57.135Z,1.50
2022-12-26T10:37:44.463Z,0.70
2022-12-26T10:40:38.405Z,0.97
2022-12-26T10:43:29.957Z,2.27
2022-12-26T10:46:33.706Z,1.73
2022-12-26T10:49:25.190Z,2.17
2022-12-26T10:52:14.299Z,0.30
2022-12-26T10:55:29.181Z,1.03
2022-12-26T10:58:17.994Z,0.97
2022-12-26T11:01:33.787Z,1.10
2022-12-26T11:05:11.155Z,0.43
2022-12-26T11:07:36.065Z,0.40
2022-12-26T11:10:26.252Z,0.67
2022-12-26T11:13:21.588Z,0.50
2022-12-26T11:16:09.685Z,2.23
2022-12-26T11:18:57.748Z,0.93
2022-12-26T11:21:44.804Z,2.33
2022-12-26T11:24:33.119Z,0.53
2022-12-26T11:27:25.183Z,0.97
2022-12-26T11:30:19.638Z,0.53
2022-12-26T11:33:15.136Z,0.30
2022-12-26T11:36:09.095Z,0.30
2022-12-26T11:38:59.199Z,0.20
2022-12-26T11:41:49.282Z,0.50
2022-12-26T11:44:41.197Z,0.30
2022-12-26T11:47:30.659Z,0.30
2022-12-26T11:50:21.633Z,0.87
2022-12-26T11:53:14.404Z,0.20
2022-12-26T11:56:03.177Z,1.03
2022-12-26T11:58:51.732Z,0.20
2022-12-26T12:01:39.804Z,0.77
2022-12-26T12:04:27.051Z,0.20
2022-12-26T12:07:28.263Z,2.13
2022-12-26T12:10:50.452Z,0.30
2022-12-26T12:14:06.617Z,0.73
2022-12-26T12:17:03.293Z,0.20
2022-12-26T12:20:09.499Z,0.30
2022-12-26T12:23:14.703Z,1.07
2022-12-26T12:26:10.554Z,0.20
2022-12-26T12:29:26.795Z,0.77
2022-12-26T12:32:19.478Z,0.20
2022-12-26T12:35:28.654Z,1.13
2022-12-26T12:38:30.034Z,0.50
2022-12-26T12:41:32.425Z,0.20
2022-12-26T12:44:29.334Z,0.20
2022-12-26T12:47:23.757Z,0.27
2022-12-26T12:50:21.948Z,0.20
2022-12-26T12:53:19.774Z,0.37
2022-12-26T12:56:22.942Z,1.10
2022-12-26T12:59:21.416Z,0.47
2022-12-26T13:02:20.878Z,0.33
2022-12-26T13:05:22.839Z,1.27
2022-12-26T13:08:17.187Z,0.30
2022-12-26T13:11:08.989Z,1.20
2022-12-26T13:14:00.890Z,0.40
2022-12-26T13:16:52.220Z,0.30
2022-12-26T13:19:51.396Z,0.20
2022-12-26T13:23:00.110Z,0.10
2022-12-26T13:25:50.558Z,0.20
2022-12-26T13:28:55.853Z,0.27
2022-12-26T13:31:43.842Z,0.20
2022-12-26T13:34:31.409Z,0.20
2022-12-26T13:37:58.127Z,0.20
2022-12-26T13:40:53.105Z,0.50
2022-12-26T13:44:03.116Z,1.00
2022-12-26T13:46:58.753Z,0.33
2022-12-26T13:49:46.380Z,0.30
2022-12-26T13:52:40.058Z,0.20
2022-12-26T13:55:44.320Z,0.50
2022-12-26T13:58:51.389Z,0.30
2022-12-26T14:01:45.883Z,0.20
2022-12-26T14:04:47.916Z,0.20
2022-12-26T14:07:43.377Z,0.30
2022-12-26T14:10:40.525Z,0.37
2022-12-26T14:13:52.984Z,0.20
2022-12-26T14:16:48.976Z,1.30
2022-12-26T14:19:51.084Z,0.43
2022-12-26T14:22:48.086Z,2.57
2022-12-26T14:25:50.946Z,0.30
2022-12-26T14:28:56.052Z,0.40
2022-12-26T14:31:51.564Z,0.73
2022-12-26T14:34:53.951Z,0.20
2022-12-26T14:37:54.418Z,0.40
2022-12-26T14:41:00.535Z,0.80
2022-12-26T14:43:47.026Z,0.87
2022-12-26T14:46:57.732Z,0.30
2022-12-26T14:49:45.624Z,0.23
2022-12-26T14:52:43.441Z,1.90
2022-12-26T14:55:52.073Z,0.20
2022-12-26T14:58:42.382Z,1.23
2022-12-26T15:01:49.870Z,0.30
2022-12-26T15:05:06.146Z,1.33
2022-12-26T15:08:26.765Z,0.20
2022-12-26T15:11:59.143Z,0.20
2022-12-26T15:15:22.133Z,0.30
2022-12-26T15:18:43.200Z,0.40
2022-12-26T15:21:57.641Z,0.53
2022-12-26T15:25:18.657Z,0.37
2022-12-26T15:28:52.364Z,0.73
2022-12-26T15:32:06.481Z,0.23
2022-12-26T15:35:04.663Z,0.47
2022-12-26T15:38:14.972Z,0.30
2022-12-26T15:41:12.983Z,0.40
2022-12-26T15:44:20.088Z,0.23
2022-12-26T15:47:19.272Z,0.33
2022-12-26T15:50:20.577Z,0.40
2022-12-26T15:53:28.089Z,0.20
2022-12-26T15:56:44.962Z,0.40
2022-12-26T15:59:54.822Z,0.50
2022-12-26T16:02:48.343Z,0.40
2022-12-26T16:05:59.568Z,1.73
2022-12-26T16:09:17.258Z,0.30
2022-12-26T16:12:04.570Z,0.33
2022-12-26T16:15:05.569Z,1.33
2022-12-26T16:17:54.388Z,0.50
2022-12-26T16:20:58.977Z,1.50
2022-12-26T16:23:48.065Z,0.90
2022-12-26T16:26:40.531Z,2.13
2022-12-26T16:29:27.923Z,0.73
2022-12-26T16:32:19.550Z,0.53
2022-12-26T16:35:16.473Z,1.23
2022-12-26T16:38:06.296Z,0.40
2022-12-26T16:40:55.747Z,0.30
2022-12-26T16:43:42.360Z,0.90
2022-12-26T16:46:32.037Z,2.03
2022-12-26T16:49:19.537Z,0.83
2022-12-26T16:52:08.282Z,0.90
2022-12-26T16:54:55.381Z,0.93
2022-12-26T16:57:43.682Z,0.87
2022-12-26T17:00:32.924Z,0.63
2022-12-26T17:03:28.989Z,0.83
2022-12-26T17:06:19.364Z,1.07
2022-12-26T17:09:10.818Z,1.20
2022-12-26T17:12:02.365Z,0.67
2022-12-26T17:14:51.340Z,0.80
2022-12-26T17:17:40.756Z,1.10
2022-12-26T17:20:39.375Z,1.17
2022-12-26T17:23:36.244Z,2.93
2022-12-26T17:26:31.921Z,0.57
2022-12-26T17:29:48.112Z,8.83
2022-12-26T17:32:39.821Z,1.30
2022-12-26T17:35:41.399Z,1.40
2022-12-26T17:38:38.802Z,0.40
2022-12-26T17:41:27.560Z,4.80
2022-12-26T17:44:37.843Z,2.40
2022-12-26T17:47:27.218Z,1.40
2022-12-26T17:50:14.924Z,1.23
2022-12-26T17:53:06.903Z,1.17
2022-12-26T17:55:57.266Z,1.30
2022-12-26T17:58:46.027Z,1.30
2022-12-26T18:01:33.510Z,2.50
2022-12-26T18:04:20.541Z,1.70
2022-12-26T18:07:08.181Z,2.57
2022-12-26T18:09:55.472Z,2.57
2022-12-26T18:12:42.787Z,0.87
2022-12-26T18:15:32.369Z,0.67
2022-12-26T18:18:25.847Z,1.80
2022-12-26T18:21:14.903Z,0.80
2022-12-26T18:24:02.397Z,1.77
2022-12-26T18:26:50.735Z,1.27
2022-12-26T18:29:40.896Z,0.83
2022-12-26T18:32:32.159Z,1.47
2022-12-26T18:35:25.147Z,1.23
2022-12-26T18:38:15.366Z,1.73
2022-12-26T18:41:02.522Z,2.03
2022-12-26T18:43:50.042Z,1.30
2022-12-26T18:46:36.991Z,2.80
2022-12-26T18:49:26.560Z,2.47
2022-12-26T18:52:17.531Z,2.40
2022-12-26T18:55:05.684Z,3.10
2022-12-26T18:57:53.466Z,1.77
2022-12-26T19:00:41.460Z,1.80
2022-12-26T19:03:28.462Z,1.33
2022-12-26T19:06:21.028Z,0.93
2022-12-26T19:09:08.132Z,0.77
2022-12-26T19:11:55.461Z,0.40
2022-12-26T19:14:45.025Z,0.87
2022-12-26T19:17:31.785Z,0.30
2022-12-26T19:20:21.082Z,4.70
2022-12-26T19:23:09.571Z,0.70
2022-12-26T19:25:56.767Z,1.23
2022-12-26T19:28:43.645Z,0.30
2022-12-26T19:31:31.104Z,0.27
2022-12-26T19:34:18.267Z,0.30
2022-12-26T19:37:08.236Z,0.30
2022-12-26T19:39:56.953Z,0.40
2022-12-26T19:42:44.377Z,0.30
2022-12-26T19:45:31.879Z,0.43
2022-12-26T19:48:19.233Z,0.73
2022-12-26T19:51:08.937Z,0.40
2022-12-26T19:53:56.835Z,0.47
2022-12-26T19:56:45.823Z,0.30
2022-12-26T19:59:33.529Z,0.40
2022-12-26T20:02:20.644Z,0.70
2022-12-26T20:05:09.534Z,1.23
2022-12-26T20:07:56.637Z,0.30
2022-12-26T20:10:43.715Z,0.50
2022-12-26T20:13:33.501Z,1.47
2022-12-26T20:17:02.705Z,0.20
2022-12-26T20:19:29.455Z,1.47
2022-12-26T20:22:16.558Z,0.40
2022-12-26T20:25:04.324Z,0.37
2022-12-26T20:27:51.853Z,0.33
2022-12-26T20:30:40.513Z,1.23
2022-12-26T20:33:27.839Z,1.40
2022-12-26T20:36:16.841Z,1.10
2022-12-26T20:39:07.641Z,1.10
2022-12-26T20:42:42.214Z,0.33
2022-12-26T20:45:29.416Z,1.33
2022-12-26T20:48:18.113Z,0.87
2022-12-26T20:51:07.961Z,0.73
2022-12-26T20:53:55.427Z,0.73
2022-12-26T20:56:43.193Z,0.40
2022-12-26T20:59:30.085Z,0.63
2022-12-26T21:02:17.660Z,0.70
2022-12-26T21:05:07.173Z,1.43
2022-12-26T21:07:54.466Z,0.73
2022-12-26T21:10:41.730Z,1.40
2022-12-26T21:13:29.493Z,0.30
2022-12-26T21:16:19.147Z,1.47
2022-12-26T21:19:15.071Z,0.43
2022-12-26T21:22:04.503Z,1.10
2022-12-26T21:24:51.838Z,0.50
2022-12-26T21:27:42.768Z,0.53
2022-12-26T21:30:30.450Z,0.43
2022-12-26T21:33:17.760Z,1.03
2022-12-26T21:36:09.896Z,0.40
2022-12-26T21:38:59.378Z,0.70
2022-12-26T21:41:46.318Z,1.60
2022-12-26T21:44:33.677Z,1.03
2022-12-26T21:47:21.527Z,0.80
2022-12-26T21:50:09.500Z,0.43
2022-12-26T21:52:57.459Z,0.63
2022-12-26T21:55:45.699Z,0.30
2022-12-26T21:58:52.725Z,6.63
2022-12-26T22:01:40.112Z,1.03
2022-12-26T22:04:26.503Z,0.50
2022-12-26T22:07:13.686Z,0.70
2022-12-26T22:10:01.262Z,1.57
2022-12-26T22:12:57.834Z,1.93
2022-12-26T22:16:07.243Z,1.57
2022-12-26T22:18:54.283Z,1.17
2022-12-26T22:21:41.451Z,1.30
2022-12-26T22:24:28.061Z,2.70
2022-12-26T22:27:15.230Z,1.13
2022-12-26T22:30:03.520Z,2.03
2022-12-26T22:32:50.677Z,1.07
2022-12-26T22:35:38.258Z,1.80
2022-12-26T22:38:25.716Z,4.27
2022-12-26T22:41:13.075Z,2.33
2022-12-26T22:44:00.219Z,3.37
2022-12-26T22:46:49.754Z,2.20
2022-12-26T22:49:37.468Z,2.57
2022-12-26T22:52:24.599Z,5.90
2022-12-26T22:55:12.687Z,4.37
2022-12-26T22:58:02.255Z,2.23
2022-12-26T23:00:50.000Z,3.20
2022-12-26T23:03:38.280Z,1.87
2022-12-26T23:06:29.470Z,3.03
2022-12-26T23:09:17.862Z,3.63
2022-12-26T23:12:22.398Z,1.50
2022-12-26T23:15:11.928Z,2.47
2022-12-26T23:18:27.754Z,2.17
2022-12-26T23:21:42.244Z,1.83
2022-12-26T23:24:32.033Z,4.77
2022-12-26T23:27:36.965Z,1.27
2022-12-26T23:30:25.666Z,1.93
2022-12-26T23:33:12.790Z,3.07
2022-12-26T23:36:00.529Z,4.57
2022-12-26T23:38:49.146Z,3.27
2022-12-26T23:41:36.264Z,1.87
2022-12-26T23:44:23.212Z,5.37
2022-12-26T23:47:10.425Z,6.93
2022-12-26T23:49:59.066Z,2.07
2022-12-26T23:52:46.573Z,4.63
2022-12-26T23:55:35.426Z,2.43
2022-12-26T23:58:22.270Z,4.73
